createdAt,value
2023-04-23T00:00:10.023Z,0.09
2023-04-23T00:01:10.649Z,0.13
2023-04-23T00:02:11.531Z,0.09
2023-04-23T00:03:12.306Z,0.09
2023-04-23T00:04:13.154Z,0.09
2023-04-23T00:05:13.255Z,0.09
2023-04-23T00:06:14.168Z,0.13
2023-04-23T00:07:14.745Z,0.09
2023-04-23T00:08:16.666Z,0.09
2023-04-23T00:09:15.696Z,0.09
2023-04-23T00:10:17.290Z,0.13
2023-04-23T00:10:25.905Z,0.09
2023-04-23T00:11:26.532Z,0.09
2023-04-23T00:12:27.341Z,0.09
2023-04-23T00:13:27.496Z,0.09
2023-04-23T00:14:28.084Z,0.13
2023-04-23T00:15:29.710Z,0.09
2023-04-23T00:16:29.568Z,0.09
2023-04-23T00:17:30.205Z,0.09
2023-04-23T00:18:30.841Z,0.09
2023-04-23T00:19:31.438Z,0.09
2023-04-23T00:20:32.091Z,0.13
2023-04-23T00:21:32.800Z,0.13
2023-04-23T00:22:34.426Z,0.09
2023-04-23T00:22:43.028Z,0.13
2023-04-23T00:23:43.617Z,0.13
2023-04-23T00:24:44.195Z,0.09
2023-04-23T00:25:44.737Z,0.09
2023-04-23T00:26:46.296Z,0.13
2023-04-23T00:27:45.487Z,0.13
2023-04-23T00:28:47.009Z,0.09
2023-04-23T00:29:46.643Z,0.09
2023-04-23T00:30:47.200Z,0.09
2023-04-23T00:31:47.334Z,0.09
2023-04-23T00:32:47.953Z,0.09
2023-04-23T00:32:56.644Z,0.09
2023-04-23T00:33:57.179Z,0.09
2023-04-23T00:34:57.703Z,0.13
2023-04-23T00:35:58.982Z,0.09
2023-04-23T00:36:58.485Z,0.09
2023-04-23T00:37:59.459Z,0.09
2023-04-23T00:39:00.948Z,0.09
2023-04-23T00:40:01.488Z,0.09
2023-04-23T00:41:01.059Z,0.09
2023-04-23T00:42:01.966Z,0.09
2023-04-23T00:43:02.529Z,0.09
2023-04-23T00:44:02.510Z,0.09
2023-04-23T00:44:17.613Z,0.09
2023-04-23T00:45:18.004Z,0.09
2023-04-23T00:46:21.798Z,0.09
2023-04-23T00:47:19.320Z,0.09
2023-04-23T00:48:19.889Z,0.09
2023-04-23T00:49:20.753Z,0.09
2023-04-23T00:50:21.396Z,0.09
2023-04-23T00:51:21.931Z,0.09
2023-04-23T00:52:22.470Z,0.09
2023-04-23T00:53:22.522Z,0.09
2023-04-23T00:54:22.871Z,0.09
2023-04-23T00:55:23.461Z,0.09
2023-04-23T00:55:33.636Z,0.09
2023-04-23T00:56:34.382Z,0.09
2023-04-23T00:57:34.906Z,0.09
2023-04-23T00:58:35.360Z,0.09
2023-04-23T00:59:36.885Z,0.09
2023-04-23T01:00:36.007Z,0.09
2023-04-23T01:01:36.149Z,0.09
2023-04-23T01:02:36.945Z,0.09
2023-04-23T01:03:37.447Z,0.09
2023-04-23T01:04:37.443Z,0.13
2023-04-23T01:05:37.715Z,0.09
2023-04-23T01:06:38.200Z,0.09
2023-04-23T01:06:48.454Z,0.09
2023-04-23T01:07:49.115Z,0.09
2023-04-23T01:08:49.951Z,0.09
2023-04-23T01:09:50.754Z,0.13
2023-04-23T01:10:51.242Z,0.13
2023-04-23T01:11:51.992Z,0.09
2023-04-23T01:12:52.560Z,0.09
2023-04-23T01:13:52.800Z,0.09
2023-04-23T01:14:53.397Z,0.09
2023-04-23T01:15:55.055Z,0.09
2023-04-23T01:16:55.024Z,0.09
2023-04-23T01:17:55.851Z,0.09
2023-04-23T01:18:07.464Z,0.09
2023-04-23T01:19:07.968Z,0.09
2023-04-23T01:20:09.609Z,0.09
2023-04-23T01:21:09.179Z,0.09
2023-04-23T01:22:10.992Z,0.09
2023-04-23T01:23:10.579Z,0.09
2023-04-23T01:24:11.216Z,0.09
2023-04-23T01:25:11.855Z,0.09
2023-04-23T01:26:12.422Z,0.09
2023-04-23T01:27:13.242Z,0.09
2023-04-23T01:28:13.990Z,0.09
2023-04-23T01:29:14.995Z,0.09
2023-04-23T01:29:24.117Z,0.09
2023-04-23T01:30:23.924Z,0.09
2023-04-23T01:31:24.697Z,0.09
2023-04-23T01:32:25.305Z,0.09
2023-04-23T01:33:25.376Z,0.09
2023-04-23T01:34:26.363Z,0.09
2023-04-23T01:35:26.974Z,0.09
2023-04-23T01:36:27.545Z,0.09
2023-04-23T01:37:28.140Z,0.09
2023-04-23T01:38:28.784Z,0.09
2023-04-23T01:39:29.621Z,0.09
2023-04-23T01:40:30.438Z,0.09
2023-04-23T01:40:39.068Z,0.09
2023-04-23T01:41:39.504Z,0.09
2023-04-23T01:42:40.774Z,0.09
2023-04-23T01:43:40.375Z,0.09
2023-04-23T01:44:41.264Z,0.09
2023-04-23T01:45:41.571Z,0.09
2023-04-23T01:46:42.175Z,0.09
2023-04-23T01:47:42.784Z,0.09
2023-04-23T01:48:43.651Z,0.09
2023-04-23T01:49:44.610Z,0.09
2023-04-23T01:50:44.009Z,0.09
2023-04-23T01:50:55.627Z,0.09
2023-04-23T01:51:55.834Z,0.09
2023-04-23T01:52:56.570Z,0.09
2023-04-23T01:53:57.174Z,0.13
2023-04-23T01:54:57.704Z,0.09
2023-04-23T01:55:58.687Z,0.09
2023-04-23T01:56:59.275Z,0.09
2023-04-23T01:57:59.784Z,0.09
2023-04-23T01:59:00.354Z,0.09
2023-04-23T02:00:00.978Z,0.09
2023-04-23T02:01:01.795Z,0.13
2023-04-23T02:01:10.580Z,0.09
2023-04-23T02:02:10.935Z,0.09
2023-04-23T02:03:11.140Z,0.09
2023-04-23T02:04:11.747Z,0.09
2023-04-23T02:05:12.277Z,0.09
2023-04-23T02:06:12.926Z,0.09
2023-04-23T02:07:13.512Z,0.09
2023-04-23T02:08:14.175Z,0.09
2023-04-23T02:09:14.768Z,0.09
2023-04-23T02:10:15.396Z,0.09
2023-04-23T02:11:15.497Z,0.09
2023-04-23T02:12:16.094Z,0.09
2023-04-23T02:13:16.664Z,0.09
2023-04-23T02:13:26.413Z,0.09
2023-04-23T02:14:27.300Z,0.09
2023-04-23T02:15:27.825Z,0.09
2023-04-23T02:16:28.607Z,0.09
2023-04-23T02:17:29.268Z,0.09
2023-04-23T02:18:29.630Z,0.09
2023-04-23T02:19:31.526Z,0.09
2023-04-23T02:20:31.877Z,0.09
2023-04-23T02:21:31.531Z,0.09
2023-04-23T02:22:31.631Z,0.09
2023-04-23T02:23:32.421Z,0.09
2023-04-23T02:24:33.293Z,0.09
2023-04-23T02:25:34.152Z,0.09
2023-04-23T02:25:51.458Z,0.09
2023-04-23T02:26:47.454Z,0.09
2023-04-23T02:27:47.998Z,0.09
2023-04-23T02:28:48.460Z,0.09
2023-04-23T02:29:48.872Z,0.09
2023-04-23T02:30:49.486Z,0.09
2023-04-23T02:31:50.701Z,0.09
2023-04-23T02:32:49.930Z,0.09
2023-04-23T02:33:50.219Z,0.09
2023-04-23T02:34:50.927Z,0.09
2023-04-23T02:35:50.992Z,0.09
2023-04-23T02:36:51.945Z,0.09
2023-04-23T02:37:52.436Z,0.09
2023-04-23T02:38:01.029Z,0.09
2023-04-23T02:39:01.556Z,0.09
2023-04-23T02:40:01.706Z,0.09
2023-04-23T02:41:02.419Z,0.09
2023-04-23T02:42:02.435Z,0.09
2023-04-23T02:43:02.446Z,0.09
2023-04-23T02:44:02.459Z,0.09
2023-04-23T02:45:02.991Z,0.09
2023-04-23T02:46:05.011Z,0.09
2023-04-23T02:47:04.557Z,0.09
2023-04-23T02:48:05.132Z,0.09
2023-04-23T02:49:05.142Z,0.09
2023-04-23T02:49:16.273Z,0.09
2023-04-23T02:50:17.216Z,0.09
2023-04-23T02:51:17.445Z,0.09
2023-04-23T02:52:18.380Z,0.09
2023-04-23T02:53:18.945Z,0.09
2023-04-23T02:54:19.775Z,0.09
2023-04-23T02:55:20.763Z,0.09
2023-04-23T02:56:21.510Z,0.09
2023-04-23T02:57:21.741Z,0.09
2023-04-23T02:58:22.739Z,0.09
2023-04-23T02:59:23.192Z,0.13
2023-04-23T03:00:24.202Z,0.09
2023-04-23T03:00:33.801Z,0.09
2023-04-23T03:01:34.394Z,0.09
2023-04-23T03:02:35.076Z,0.09
2023-04-23T03:03:35.810Z,0.09
2023-04-23T03:04:35.825Z,0.09
2023-04-23T03:05:36.862Z,0.09
2023-04-23T03:06:35.970Z,0.09
2023-04-23T03:07:37.650Z,0.09
2023-04-23T03:08:36.763Z,0.09
2023-04-23T03:09:38.112Z,0.09
2023-04-23T03:10:37.744Z,0.09
2023-04-23T03:11:38.599Z,0.09
2023-04-23T03:12:02.268Z,0.09
2023-04-23T03:13:03.251Z,0.09
2023-04-23T03:14:03.441Z,0.09
2023-04-23T03:15:04.067Z,0.09
2023-04-23T03:16:04.728Z,0.09
2023-04-23T03:17:05.616Z,0.09
2023-04-23T03:18:06.169Z,0.13
2023-04-23T03:19:06.821Z,0.09
2023-04-23T03:20:07.449Z,0.09
2023-04-23T03:21:07.803Z,0.13
2023-04-23T03:22:07.864Z,0.09
2023-04-23T03:23:08.347Z,0.09
2023-04-23T03:24:08.931Z,0.09
2023-04-23T03:24:23.576Z,0.09
2023-04-23T03:25:23.787Z,0.09
2023-04-23T03:26:23.925Z,0.09
2023-04-23T03:27:24.614Z,0.09
2023-04-23T03:28:25.266Z,0.09
2023-04-23T03:29:25.972Z,0.09
2023-04-23T03:30:26.607Z,0.09
2023-04-23T03:31:27.407Z,0.09
2023-04-23T03:32:27.956Z,0.09
2023-04-23T03:33:28.745Z,0.09
2023-04-23T03:34:29.738Z,0.09
2023-04-23T03:34:40.072Z,0.13
2023-04-23T03:35:39.954Z,0.09
2023-04-23T03:36:40.710Z,0.09
2023-04-23T03:37:41.003Z,0.09
2023-04-23T03:38:41.536Z,0.09
2023-04-23T03:39:42.235Z,0.09
2023-04-23T03:40:43.196Z,0.09
2023-04-23T03:41:44.189Z,0.09
2023-04-23T03:42:44.343Z,0.13
2023-04-23T03:43:44.315Z,0.09
2023-04-23T03:44:45.214Z,0.09
2023-04-23T03:45:45.876Z,0.09
2023-04-23T03:45:56.560Z,0.13
2023-04-23T03:46:57.159Z,0.09
2023-04-23T03:47:57.982Z,0.13
2023-04-23T03:48:58.593Z,0.09
2023-04-23T03:49:59.575Z,0.13
2023-04-23T03:51:00.251Z,0.13
2023-04-23T03:52:01.168Z,0.09
2023-04-23T03:53:01.194Z,0.09
2023-04-23T03:54:01.353Z,0.13
2023-04-23T03:55:02.043Z,0.09
2023-04-23T03:56:02.652Z,0.13
2023-04-23T03:57:02.869Z,0.13
2023-04-23T03:58:03.493Z,0.09
2023-04-23T03:58:14.242Z,0.09
2023-04-23T03:59:14.931Z,0.13
2023-04-23T04:00:15.671Z,0.13
2023-04-23T04:01:16.011Z,0.13
2023-04-23T04:02:16.870Z,0.13
2023-04-23T04:03:17.461Z,0.13
2023-04-23T04:04:18.166Z,0.13
2023-04-23T04:05:18.432Z,0.13
2023-04-23T04:06:18.382Z,0.13
2023-04-23T04:07:18.573Z,0.13
2023-04-23T04:08:18.767Z,0.13
2023-04-23T04:09:19.315Z,0.13
2023-04-23T04:10:20.259Z,0.13
2023-04-23T04:10:28.977Z,0.13
2023-04-23T04:11:29.382Z,0.13
2023-04-23T04:12:29.517Z,0.13
2023-04-23T04:13:29.605Z,0.13
2023-04-23T04:14:29.727Z,0.16
2023-04-23T04:15:29.739Z,0.13
2023-04-23T04:16:30.107Z,0.13
2023-04-23T04:17:30.773Z,0.13
2023-04-23T04:18:30.695Z,0.13
2023-04-23T04:19:30.862Z,0.13
2023-04-23T04:20:31.500Z,0.13
2023-04-23T04:21:32.025Z,0.16
2023-04-23T04:22:32.747Z,0.16
2023-04-23T04:22:42.435Z,0.16
2023-04-23T04:23:43.284Z,0.16
2023-04-23T04:24:44.229Z,0.13
2023-04-23T04:25:44.829Z,0.13
2023-04-23T04:26:45.453Z,0.13
2023-04-23T04:27:46.064Z,0.13
2023-04-23T04:28:46.096Z,0.16
2023-04-23T04:29:47.072Z,0.16
2023-04-23T04:30:47.619Z,0.16
2023-04-23T04:31:48.390Z,0.16
2023-04-23T04:32:48.634Z,0.16
2023-04-23T04:33:48.659Z,0.16
2023-04-23T04:33:57.882Z,0.13
2023-04-23T04:34:58.575Z,0.16
2023-04-23T04:35:58.717Z,0.16
2023-04-23T04:36:59.302Z,0.16
2023-04-23T04:38:00.989Z,0.16
2023-04-23T04:39:00.672Z,0.16
2023-04-23T04:40:01.174Z,0.23
2023-04-23T04:41:01.377Z,0.23
2023-04-23T04:42:02.080Z,0.23
2023-04-23T04:43:02.848Z,0.23
2023-04-23T04:44:03.637Z,0.27
2023-04-23T04:45:03.927Z,0.27
2023-04-23T04:45:21.640Z,0.27
2023-04-23T04:46:22.345Z,0.27
2023-04-23T04:47:22.689Z,0.27
2023-04-23T04:48:22.861Z,0.27
2023-04-23T04:49:23.425Z,0.27
2023-04-23T04:50:24.147Z,0.27
2023-04-23T04:51:25.006Z,0.27
2023-04-23T04:52:25.886Z,0.27
2023-04-23T04:53:26.392Z,0.27
2023-04-23T04:54:27.228Z,0.31
2023-04-23T04:55:27.336Z,0.27
2023-04-23T04:56:27.853Z,0.27
2023-04-23T04:57:28.795Z,0.31
2023-04-23T04:57:37.473Z,0.27
2023-04-23T04:58:37.718Z,0.27
2023-04-23T04:59:38.572Z,0.27
2023-04-23T05:00:38.761Z,0.27
2023-04-23T05:01:39.451Z,0.31
2023-04-23T05:02:39.816Z,0.31
2023-04-23T05:03:40.409Z,0.31
2023-04-23T05:04:41.443Z,0.31
2023-04-23T05:05:41.903Z,0.31
2023-04-23T05:06:42.518Z,0.34
2023-04-23T05:07:43.073Z,0.31
2023-04-23T05:08:43.670Z,0.31
2023-04-23T05:08:53.827Z,0.34
2023-04-23T05:09:54.549Z,0.34
2023-04-23T05:10:55.331Z,0.34
2023-04-23T05:11:55.925Z,0.34
2023-04-23T05:12:57.090Z,0.34
2023-04-23T05:13:56.690Z,0.34
2023-04-23T05:14:58.217Z,0.34
2023-04-23T05:15:58.183Z,0.34
2023-04-23T05:16:59.891Z,0.34
2023-04-23T05:17:59.468Z,0.34
2023-04-23T05:18:59.921Z,0.31
2023-04-23T05:20:00.535Z,0.31
2023-04-23T05:20:09.609Z,0.31
2023-04-23T05:21:10.372Z,0.34
2023-04-23T05:22:10.548Z,0.38
2023-04-23T05:23:11.417Z,0.41
2023-04-23T05:24:12.295Z,0.38
2023-04-23T05:25:12.974Z,0.41
2023-04-23T05:26:13.589Z,0.41
2023-04-23T05:27:14.272Z,0.45
2023-04-23T05:28:15.122Z,0.45
2023-04-23T05:29:16.814Z,0.38
2023-04-23T05:30:16.501Z,0.38
2023-04-23T05:30:25.137Z,0.38
2023-04-23T05:31:27.039Z,0.31
2023-04-23T05:32:26.165Z,0.34
2023-04-23T05:33:30.616Z,0.34
2023-04-23T05:34:27.183Z,0.41
2023-04-23T05:35:27.757Z,0.34
2023-04-23T05:36:29.251Z,0.34
2023-04-23T05:37:29.000Z,0.41
2023-04-23T05:38:30.917Z,0.41
2023-04-23T05:39:30.491Z,0.34
2023-04-23T05:40:31.012Z,0.41
2023-04-23T05:41:31.510Z,0.38
2023-04-23T05:41:45.589Z,0.48
2023-04-23T05:42:46.367Z,0.48
2023-04-23T05:43:46.392Z,0.55
2023-04-23T05:44:47.197Z,0.34
2023-04-23T05:45:47.366Z,0.55
2023-04-23T05:46:48.024Z,0.34
2023-04-23T05:47:48.083Z,0.41
2023-04-23T05:48:48.050Z,0.70
2023-04-23T05:49:48.561Z,0.66
2023-04-23T05:50:48.995Z,0.66
2023-04-23T05:51:49.586Z,0.41
2023-04-23T05:52:50.219Z,0.34
2023-04-23T05:52:59.410Z,0.34
2023-04-23T05:53:59.842Z,0.34
2023-04-23T05:55:00.527Z,0.34
2023-04-23T05:56:00.554Z,0.31
2023-04-23T05:57:01.037Z,0.34
2023-04-23T05:58:01.832Z,0.34
2023-04-23T05:59:02.820Z,0.34
2023-04-23T06:00:03.494Z,0.34
2023-04-23T06:01:03.497Z,0.34
2023-04-23T06:02:03.576Z,0.34
2023-04-23T06:03:04.207Z,0.34
2023-04-23T06:04:05.205Z,0.34
2023-04-23T06:05:05.959Z,0.34
2023-04-23T06:06:06.345Z,0.34
2023-04-23T06:06:17.445Z,0.34
2023-04-23T06:07:17.633Z,0.34
2023-04-23T06:08:18.465Z,0.34
2023-04-23T06:09:18.975Z,0.34
2023-04-23T06:10:19.856Z,0.34
2023-04-23T06:11:20.482Z,0.34
2023-04-23T06:12:21.073Z,0.34
2023-04-23T06:13:21.741Z,0.34
2023-04-23T06:14:22.073Z,0.34
2023-04-23T06:15:22.744Z,0.34
2023-04-23T06:16:23.364Z,0.38
2023-04-23T06:17:23.988Z,0.38
2023-04-23T06:17:37.544Z,0.38
2023-04-23T06:18:38.867Z,0.38
2023-04-23T06:19:38.736Z,0.34
2023-04-23T06:20:39.466Z,0.38
2023-04-23T06:21:40.480Z,0.34
2023-04-23T06:22:40.050Z,0.38
2023-04-23T06:23:41.657Z,0.38
2023-04-23T06:24:41.552Z,0.38
2023-04-23T06:25:41.771Z,0.38
2023-04-23T06:26:42.420Z,0.34
2023-04-23T06:27:43.357Z,0.34
2023-04-23T06:27:56.517Z,0.38
2023-04-23T06:28:56.791Z,0.38
2023-04-23T06:29:57.494Z,0.38
2023-04-23T06:30:57.698Z,0.38
2023-04-23T06:31:58.243Z,0.38
2023-04-23T06:32:58.821Z,0.34
2023-04-23T06:33:59.455Z,0.34
2023-04-23T06:35:02.065Z,0.34
2023-04-23T06:35:59.554Z,0.38
2023-04-23T06:37:00.202Z,0.41
2023-04-23T06:38:01.064Z,0.38
2023-04-23T06:38:08.817Z,0.34
2023-04-23T06:39:09.582Z,0.38
2023-04-23T06:40:10.110Z,0.34
2023-04-23T06:41:10.800Z,0.38
2023-04-23T06:42:10.989Z,0.41
2023-04-23T06:43:12.604Z,0.38
2023-04-23T06:44:11.863Z,0.41
2023-04-23T06:45:12.671Z,0.41
2023-04-23T06:46:13.104Z,0.41
2023-04-23T06:47:13.653Z,0.45
2023-04-23T06:48:13.994Z,0.45
2023-04-23T06:49:14.657Z,0.48
2023-04-23T06:50:14.660Z,0.48
2023-04-23T06:51:15.557Z,0.48
2023-04-23T06:52:16.447Z,0.48
2023-04-23T06:52:25.385Z,0.48
2023-04-23T06:53:26.334Z,0.52
2023-04-23T06:54:26.412Z,0.45
2023-04-23T06:55:26.728Z,0.45
2023-04-23T06:56:27.505Z,0.48
2023-04-23T06:57:27.547Z,0.55
2023-04-23T06:58:27.928Z,0.59
2023-04-23T06:59:28.412Z,0.77
2023-04-23T07:00:28.435Z,0.70
2023-04-23T07:01:29.072Z,0.59
2023-04-23T07:02:29.463Z,0.66
2023-04-23T07:02:42.362Z,0.66
2023-04-23T07:03:44.925Z,0.70
2023-04-23T07:04:43.470Z,0.73
2023-04-23T07:05:43.854Z,0.73
2023-04-23T07:06:44.636Z,0.80
2023-04-23T07:07:46.060Z,0.84
2023-04-23T07:08:45.720Z,0.66
2023-04-23T07:09:46.477Z,0.66
2023-04-23T07:10:47.156Z,0.77
2023-04-23T07:11:47.779Z,0.98
2023-04-23T07:12:47.931Z,1.23
2023-04-23T07:12:59.690Z,1.55
2023-04-23T07:13:59.914Z,1.44
2023-04-23T07:15:00.877Z,1.52
2023-04-23T07:16:01.642Z,1.27
2023-04-23T07:17:02.652Z,1.59
2023-04-23T07:18:03.442Z,1.52
2023-04-23T07:19:03.422Z,1.55
2023-04-23T07:20:04.201Z,1.20
2023-04-23T07:21:04.382Z,0.77
2023-04-23T07:22:05.458Z,0.98
2023-04-23T07:23:04.673Z,0.77
2023-04-23T07:24:05.592Z,0.59
2023-04-23T07:24:17.755Z,0.70
2023-04-23T07:25:17.795Z,0.45
2023-04-23T07:26:19.586Z,0.52
2023-04-23T07:27:19.342Z,0.55
2023-04-23T07:28:19.598Z,0.52
2023-04-23T07:29:20.317Z,0.48
2023-04-23T07:30:20.848Z,0.55
2023-04-23T07:31:21.061Z,0.52
2023-04-23T07:32:21.847Z,0.52
2023-04-23T07:33:22.606Z,0.41
2023-04-23T07:34:23.548Z,0.45
2023-04-23T07:35:24.156Z,0.38
2023-04-23T07:35:34.750Z,0.38
2023-04-23T07:36:35.597Z,0.34
2023-04-23T07:37:36.250Z,0.34
2023-04-23T07:38:36.837Z,0.34
2023-04-23T07:39:36.997Z,0.31
2023-04-23T07:40:37.024Z,0.31
2023-04-23T07:41:37.637Z,0.31
2023-04-23T07:42:39.477Z,0.34
2023-04-23T07:43:39.080Z,0.34
2023-04-23T07:44:39.673Z,0.34
2023-04-23T07:45:40.411Z,0.34
2023-04-23T07:46:41.124Z,0.38
2023-04-23T07:46:50.980Z,0.38
2023-04-23T07:47:51.880Z,0.38
2023-04-23T07:48:52.798Z,0.41
2023-04-23T07:49:53.456Z,0.41
2023-04-23T07:50:53.997Z,0.41
2023-04-23T07:51:54.769Z,0.41
2023-04-23T07:52:55.682Z,0.52
2023-04-23T07:53:56.109Z,0.55
2023-04-23T07:54:56.688Z,0.52
2023-04-23T07:55:57.424Z,0.55
2023-04-23T07:56:59.086Z,0.59
2023-04-23T07:57:09.236Z,0.52
2023-04-23T07:58:09.963Z,0.52
2023-04-23T07:59:10.123Z,0.55
2023-04-23T08:00:10.700Z,0.55
2023-04-23T08:01:10.992Z,0.59
2023-04-23T08:02:11.965Z,0.59
2023-04-23T08:03:12.855Z,0.66
2023-04-23T08:04:13.618Z,0.59
2023-04-23T08:05:14.059Z,0.52
2023-04-23T08:06:14.730Z,0.59
2023-04-23T08:07:15.675Z,0.66
2023-04-23T08:08:16.004Z,0.59
2023-04-23T08:09:16.632Z,0.59
2023-04-23T08:09:25.302Z,0.59
2023-04-23T08:10:26.022Z,0.52
2023-04-23T08:11:27.487Z,0.59
2023-04-23T08:12:27.253Z,0.59
2023-04-23T08:13:27.340Z,0.48
2023-04-23T08:14:27.717Z,0.59
2023-04-23T08:15:28.771Z,0.59
2023-04-23T08:16:30.819Z,0.48
2023-04-23T08:17:30.146Z,0.45
2023-04-23T08:18:30.233Z,0.45
2023-04-23T08:19:30.828Z,1.09
2023-04-23T08:20:31.508Z,0.59
2023-04-23T08:20:43.198Z,0.55
2023-04-23T08:21:43.411Z,0.48
2023-04-23T08:22:43.572Z,0.45
2023-04-23T08:23:43.774Z,0.45
2023-04-23T08:24:44.448Z,0.41
2023-04-23T08:25:45.097Z,0.38
2023-04-23T08:26:45.133Z,0.38
2023-04-23T08:27:45.894Z,0.48
2023-04-23T08:28:46.580Z,0.48
2023-04-23T08:29:47.262Z,0.41
2023-04-23T08:30:47.971Z,0.48
2023-04-23T08:31:47.959Z,0.45
2023-04-23T08:32:48.868Z,0.38
2023-04-23T08:32:57.076Z,0.41
2023-04-23T08:33:57.752Z,0.52
2023-04-23T08:34:58.545Z,0.45
2023-04-23T08:35:59.226Z,0.55
2023-04-23T08:36:59.555Z,0.59
2023-04-23T08:38:00.199Z,0.70
2023-04-23T08:39:00.531Z,0.77
2023-04-23T08:40:01.197Z,0.70
2023-04-23T08:41:01.349Z,0.66
2023-04-23T08:42:02.011Z,0.66
2023-04-23T08:43:02.667Z,0.66
2023-04-23T08:44:03.285Z,0.66
2023-04-23T08:45:03.367Z,0.80
2023-04-23T08:46:04.234Z,0.48
2023-04-23T08:46:12.769Z,0.48
2023-04-23T08:47:12.814Z,0.48
2023-04-23T08:48:13.693Z,0.48
2023-04-23T08:49:14.248Z,0.45
2023-04-23T08:50:14.303Z,0.41
2023-04-23T08:51:14.961Z,0.45
2023-04-23T08:52:16.619Z,0.52
2023-04-23T08:53:16.673Z,0.45
2023-04-23T08:54:16.916Z,0.66
2023-04-23T08:55:17.667Z,0.55
2023-04-23T08:56:18.243Z,0.59
2023-04-23T08:57:18.922Z,0.73
2023-04-23T08:57:27.645Z,0.66
2023-04-23T08:58:28.402Z,0.55
2023-04-23T08:59:28.401Z,0.70
2023-04-23T09:00:30.020Z,1.30
2023-04-23T09:01:29.623Z,1.55
2023-04-23T09:02:30.305Z,1.80
2023-04-23T09:03:30.579Z,0.77
2023-04-23T09:04:31.091Z,1.12
2023-04-23T09:05:31.744Z,0.95
2023-04-23T09:06:32.341Z,0.77
2023-04-23T09:07:32.693Z,0.77
2023-04-23T09:08:32.693Z,0.77
2023-04-23T09:09:32.969Z,0.66
2023-04-23T09:09:42.271Z,0.66
2023-04-23T09:10:42.686Z,0.59
2023-04-23T09:11:42.854Z,0.52
2023-04-23T09:12:43.584Z,0.59
2023-04-23T09:13:44.397Z,0.66
2023-04-23T09:14:45.807Z,0.55
2023-04-23T09:15:46.457Z,1.23
2023-04-23T09:16:47.354Z,1.98
2023-04-23T09:17:47.212Z,2.09
2023-04-23T09:18:47.982Z,1.02
2023-04-23T09:19:03.541Z,1.02
2023-04-23T09:20:03.969Z,1.09
2023-04-23T09:21:04.935Z,0.73
2023-04-23T09:22:04.943Z,0.70
2023-04-23T09:23:05.801Z,0.66
2023-04-23T09:24:06.327Z,0.66
2023-04-23T09:25:06.962Z,1.16
2023-04-23T09:26:07.983Z,0.70
2023-04-23T09:27:08.879Z,0.73
2023-04-23T09:28:09.009Z,0.66
2023-04-23T09:29:09.136Z,0.80
2023-04-23T09:30:10.068Z,0.80
2023-04-23T09:31:10.909Z,0.80
2023-04-23T09:32:11.937Z,0.77
2023-04-23T09:33:12.718Z,0.70
2023-04-23T09:34:13.470Z,0.70
2023-04-23T09:35:14.547Z,0.73
2023-04-23T09:36:14.443Z,0.77
2023-04-23T09:36:25.774Z,0.77
2023-04-23T09:37:25.650Z,0.80
2023-04-23T09:38:26.498Z,0.73
2023-04-23T09:39:27.325Z,0.77
2023-04-23T09:40:28.208Z,0.77
2023-04-23T09:41:29.068Z,0.80
2023-04-23T09:42:29.968Z,0.88
2023-04-23T09:43:31.134Z,0.88
2023-04-23T09:44:32.048Z,0.95
2023-04-23T09:45:32.021Z,0.91
2023-04-23T09:46:32.604Z,0.88
2023-04-23T09:47:33.578Z,0.88
2023-04-23T09:48:34.356Z,0.84
2023-04-23T09:49:34.498Z,0.77
2023-04-23T09:50:35.406Z,0.80
2023-04-23T09:51:37.330Z,0.77
2023-04-23T09:52:36.472Z,0.91
2023-04-23T09:53:39.154Z,1.27
2023-04-23T09:54:37.505Z,1.02
2023-04-23T09:58:28.349Z,0.88
2023-04-23T09:59:39.602Z,0.84
2023-04-23T10:00:33.201Z,0.70
2023-04-23T10:01:29.035Z,0.66
2023-04-23T10:02:29.036Z,0.70
2023-04-23T10:03:29.945Z,0.66
2023-04-23T10:04:30.026Z,0.59
2023-04-23T10:07:32.416Z,0.55
2023-04-23T10:08:34.605Z,0.55
2023-04-23T10:09:33.497Z,0.59
2023-04-23T10:10:36.349Z,0.66
2023-04-23T10:11:35.120Z,0.70
2023-04-23T10:12:52.318Z,0.66
2023-04-23T10:12:55.226Z,0.66
2023-04-23T10:13:53.505Z,0.66
2023-04-23T10:14:54.145Z,0.70
2023-04-23T10:15:56.830Z,0.84
2023-04-23T10:16:55.196Z,1.09
2023-04-23T10:17:55.914Z,1.30
2023-04-23T10:18:56.102Z,1.52
2023-04-23T10:19:56.915Z,1.23
2023-04-23T10:20:58.769Z,1.30
2023-04-23T10:22:05.136Z,1.02
2023-04-23T10:22:57.979Z,1.41
2023-04-23T10:23:58.902Z,1.27
2023-04-23T10:24:58.989Z,1.12
2023-04-23T10:25:59.148Z,1.20
2023-04-23T10:27:01.974Z,1.41
2023-04-23T10:28:00.968Z,1.37
2023-04-23T10:29:01.859Z,0.84
2023-04-23T10:30:05.978Z,0.70
2023-04-23T10:31:06.390Z,0.70
2023-04-23T10:32:04.334Z,0.70
2023-04-23T10:34:22.390Z,0.59
2023-04-23T10:35:18.428Z,0.73
2023-04-23T10:36:19.327Z,0.70
2023-04-23T10:37:20.284Z,0.70
2023-04-23T10:38:20.370Z,0.59
2023-04-23T10:39:29.709Z,0.55
2023-04-23T10:40:24.157Z,0.59
2023-04-23T10:41:24.749Z,0.73
2023-04-23T10:42:22.765Z,0.66
2023-04-23T10:43:23.367Z,0.73
2023-04-23T10:44:38.541Z,0.80
2023-04-23T10:45:25.821Z,0.80
2023-04-23T10:46:25.260Z,0.73
2023-04-23T10:47:26.138Z,0.73
2023-04-23T10:48:26.926Z,0.70
2023-04-23T10:49:30.670Z,0.73
2023-04-23T10:50:28.097Z,0.80
2023-04-23T10:52:10.051Z,0.77
2023-04-23T10:52:30.928Z,0.77
2023-04-23T10:53:33.047Z,0.73
2023-04-23T10:54:31.964Z,0.66
2023-04-23T10:55:36.516Z,0.70
2023-04-23T10:56:32.749Z,0.77
2023-04-23T10:57:33.645Z,0.70
2023-04-23T10:58:34.460Z,0.73
2023-04-23T10:59:35.447Z,0.66
2023-04-23T11:00:39.226Z,0.77
2023-04-23T11:01:39.723Z,0.66
2023-04-23T11:02:38.066Z,0.66
2023-04-23T11:03:44.837Z,0.59
2023-04-23T11:04:38.965Z,0.70
2023-04-23T11:05:39.602Z,0.59
2023-04-23T11:06:40.479Z,0.55
2023-04-23T11:07:40.898Z,0.55
2023-04-23T11:08:41.061Z,0.48
2023-04-23T11:09:41.543Z,0.48
2023-04-23T11:10:42.124Z,0.55
2023-04-23T11:11:43.089Z,0.66
2023-04-23T11:12:46.581Z,0.73
2023-04-23T11:13:45.618Z,0.84
2023-04-23T11:14:44.853Z,0.84
2023-04-23T11:15:45.004Z,0.84
2023-04-23T11:16:46.074Z,0.91
2023-04-23T11:17:46.209Z,0.91
2023-04-23T11:18:51.074Z,1.27
2023-04-23T11:19:47.231Z,1.09
2023-04-23T11:20:48.313Z,1.20
2023-04-23T11:21:48.646Z,1.30
2023-04-23T11:23:52.750Z,1.27
2023-04-23T11:24:51.936Z,1.34
2023-04-23T11:25:52.858Z,2.09
2023-04-23T11:29:19.921Z,2.16
2023-04-23T11:30:20.227Z,2.16
2023-04-23T11:31:21.144Z,2.09
2023-04-23T11:32:24.361Z,2.16
2023-04-23T11:33:22.449Z,2.12
2023-04-23T11:34:22.966Z,1.73
2023-04-23T11:36:01.530Z,1.34
2023-04-23T11:37:07.581Z,1.41
2023-04-23T11:38:01.721Z,1.80
2023-04-23T11:39:01.940Z,1.94
2023-04-23T11:40:05.126Z,1.84
2023-04-23T11:43:19.301Z,1.73
2023-04-23T11:44:18.184Z,2.05
2023-04-23T11:45:19.050Z,1.73
2023-04-23T11:46:19.971Z,0.95
2023-04-23T11:47:20.561Z,1.44
2023-04-23T11:48:20.811Z,1.44
2023-04-23T11:49:21.589Z,1.52
2023-04-23T11:50:22.555Z,1.77
2023-04-23T11:51:23.400Z,1.62
2023-04-23T11:52:27.102Z,1.30
2023-04-23T11:52:43.851Z,1.20
2023-04-23T11:53:42.479Z,1.34
2023-04-23T11:54:43.301Z,1.34
2023-04-23T11:55:44.281Z,1.41
2023-04-23T11:56:44.678Z,1.30
2023-04-23T11:57:45.375Z,1.09
2023-04-23T11:58:45.432Z,1.20
2023-04-23T11:59:47.363Z,1.02
2023-04-23T12:00:46.567Z,1.20
2023-04-23T12:01:47.367Z,1.23
2023-04-23T12:02:48.254Z,1.16
2023-04-23T12:03:49.205Z,0.98
2023-04-23T12:04:50.031Z,1.27
2023-04-23T12:05:52.782Z,0.98
2023-04-23T12:06:51.644Z,1.27
2023-04-23T12:07:52.472Z,1.09
2023-04-23T12:08:53.358Z,1.23
2023-04-23T12:09:53.400Z,1.23
2023-04-23T12:10:54.367Z,1.12
2023-04-23T12:11:08.195Z,1.09
2023-04-23T12:12:07.959Z,1.02
2023-04-23T12:13:08.872Z,1.02
2023-04-23T12:14:09.677Z,1.02
2023-04-23T12:15:10.143Z,0.98
2023-04-23T12:16:11.287Z,1.16
2023-04-23T12:17:11.364Z,1.02
2023-04-23T12:18:11.536Z,1.20
2023-04-23T12:19:49.238Z,1.27
2023-04-23T12:21:26.590Z,1.12
2023-04-23T12:22:26.875Z,1.30
2023-04-23T12:23:28.711Z,1.27
2023-04-23T12:24:31.580Z,1.09
2023-04-23T12:25:29.211Z,1.09
2023-04-23T12:26:32.432Z,1.16
2023-04-23T12:27:33.067Z,0.91
2023-04-23T12:28:31.386Z,0.95
2023-04-23T12:29:31.866Z,0.95
2023-04-23T12:30:32.737Z,1.09
2023-04-23T12:31:34.774Z,0.95
2023-04-23T12:32:34.864Z,1.23
2023-04-23T12:33:33.794Z,1.16
2023-04-23T12:34:33.865Z,1.30
2023-04-23T12:35:37.426Z,1.30
2023-04-23T12:36:35.582Z,1.55
2023-04-23T12:37:35.992Z,1.37
2023-04-23T12:38:36.773Z,1.09
2023-04-23T12:39:38.715Z,1.12
2023-04-23T12:40:37.913Z,1.27
2023-04-23T12:41:44.716Z,1.02
2023-04-23T12:42:38.955Z,1.02
2023-04-23T12:43:39.927Z,1.23
2023-04-23T12:44:40.760Z,1.09
2023-04-23T12:45:42.632Z,1.09
2023-04-23T12:46:53.220Z,1.27
2023-04-23T12:49:19.434Z,1.34
2023-04-23T12:51:26.934Z,1.12
2023-04-23T12:52:26.138Z,1.12
2023-04-23T12:54:15.814Z,0.88
2023-04-23T12:56:26.095Z,0.95
2023-04-23T12:57:21.243Z,1.12
2023-04-23T12:58:56.273Z,2.23
2023-04-23T12:59:53.195Z,1.66
2023-04-23T13:00:58.789Z,2.01